sensor_id;sensor_type;location;lat;lon;timestamp;P1;durP1;ratioP1;P2;durP2;ratioP2
31716;SDS011;18301;51.076;17.046;2022-09-25T00:02:12;42.60;;;23.30;;
31716;SDS011;18301;51.076;17.046;2022-09-25T00:07:14;36.75;;;21.65;;
31716;SDS011;18301;51.076;17.046;2022-09-25T00:12:15;37.63;;;22.83;;
31716;SDS011;18301;51.076;17.046;2022-09-25T00:17:17;39.38;;;22.77;;
31716;SDS011;18301;51.076;17.046;2022-09-25T00:22:19;41.05;;;21.98;;
31716;SDS011;18301;51.076;17.046;2022-09-25T00:27:22;39.30;;;24.05;;
31716;SDS011;18301;51.076;17.046;2022-09-25T00:32:23;43.05;;;26.65;;
31716;SDS011;18301;51.076;17.046;2022-09-25T00:37:25;47.60;;;27.30;;
31716;SDS011;18301;51.076;17.046;2022-09-25T00:42:28;43.20;;;26.50;;
31716;SDS011;18301;51.076;17.046;2022-09-25T00:47:35;45.03;;;27.85;;
31716;SDS011;18301;51.076;17.046;2022-09-25T00:52:44;45.67;;;26.30;;
31716;SDS011;18301;51.076;17.046;2022-09-25T00:57:47;40.78;;;25.20;;
31716;SDS011;18301;51.076;17.046;2022-09-25T01:02:53;41.83;;;25.15;;
31716;SDS011;18301;51.076;17.046;2022-09-25T01:07:57;38.85;;;23.73;;
31716;SDS011;18301;51.076;17.046;2022-09-25T01:13:01;39.17;;;24.05;;
31716;SDS011;18301;51.076;17.046;2022-09-25T01:28:38;37.85;;;23.45;;
31716;SDS011;18301;51.076;17.046;2022-09-25T01:33:45;39.40;;;22.85;;
31716;SDS011;18301;51.076;17.046;2022-09-25T01:38:52;37.35;;;22.27;;
31716;SDS011;18301;51.076;17.046;2022-09-25T01:44:11;38.95;;;22.95;;
31716;SDS011;18301;51.076;17.046;2022-09-25T01:49:21;35.42;;;21.90;;
31716;SDS011;18301;51.076;17.046;2022-09-25T01:54:28;36.88;;;22.20;;
31716;SDS011;18301;51.076;17.046;2022-09-25T01:59:36;36.13;;;21.20;;
31716;SDS011;18301;51.076;17.046;2022-09-25T02:04:44;36.10;;;21.92;;
31716;SDS011;18301;51.076;17.046;2022-09-25T02:09:53;36.25;;;20.20;;
31716;SDS011;18301;51.076;17.046;2022-09-25T02:20:03;33.95;;;20.40;;
31716;SDS011;18301;51.076;17.046;2022-09-25T02:25:30;35.78;;;19.92;;
31716;SDS011;18301;51.076;17.046;2022-09-25T02:30:42;31.55;;;19.50;;
31716;SDS011;18301;51.076;17.046;2022-09-25T02:35:46;34.08;;;20.48;;
31716;SDS011;18301;51.076;17.046;2022-09-25T02:41:10;34.92;;;20.23;;
31716;SDS011;18301;51.076;17.046;2022-09-25T02:46:22;30.92;;;19.40;;
31716;SDS011;18301;51.076;17.046;2022-09-25T02:51:52;28.52;;;18.15;;
31716;SDS011;18301;51.076;17.046;2022-09-25T02:57:02;31.45;;;18.92;;
31716;SDS011;18301;51.076;17.046;2022-09-25T03:02:10;28.13;;;17.90;;
31716;SDS011;18301;51.076;17.046;2022-09-25T03:07:15;30.17;;;16.80;;
31716;SDS011;18301;51.076;17.046;2022-09-25T03:12:17;26.65;;;17.35;;
31716;SDS011;18301;51.076;17.046;2022-09-25T03:17:19;25.83;;;16.58;;
31716;SDS011;18301;51.076;17.046;2022-09-25T03:22:23;27.00;;;17.27;;
31716;SDS011;18301;51.076;17.046;2022-09-25T03:27:24;30.73;;;17.23;;
31716;SDS011;18301;51.076;17.046;2022-09-25T03:32:28;30.52;;;17.63;;
31716;SDS011;18301;51.076;17.046;2022-09-25T03:37:30;25.67;;;16.30;;
31716;SDS011;18301;51.076;17.046;2022-09-25T03:42:32;30.13;;;16.65;;
31716;SDS011;18301;51.076;17.046;2022-09-25T03:47:33;27.27;;;16.73;;
31716;SDS011;18301;51.076;17.046;2022-09-25T03:52:35;28.10;;;16.92;;
31716;SDS011;18301;51.076;17.046;2022-09-25T03:57:36;27.85;;;16.00;;
31716;SDS011;18301;51.076;17.046;2022-09-25T04:02:39;24.08;;;15.23;;
31716;SDS011;18301;51.076;17.046;2022-09-25T04:07:41;27.17;;;16.63;;
31716;SDS011;18301;51.076;17.046;2022-09-25T04:12:42;30.52;;;16.23;;
31716;SDS011;18301;51.076;17.046;2022-09-25T04:17:43;25.92;;;16.13;;
31716;SDS011;18301;51.076;17.046;2022-09-25T04:22:45;26.95;;;15.95;;
31716;SDS011;18301;51.076;17.046;2022-09-25T04:27:47;24.83;;;15.75;;
31716;SDS011;18301;51.076;17.046;2022-09-25T04:32:50;29.55;;;15.98;;
31716;SDS011;18301;51.076;17.046;2022-09-25T04:38:10;23.63;;;15.50;;
31716;SDS011;18301;51.076;17.046;2022-09-25T04:43:13;25.77;;;15.88;;
31716;SDS011;18301;51.076;17.046;2022-09-25T04:48:14;29.60;;;17.23;;
31716;SDS011;18301;51.076;17.046;2022-09-25T04:53:16;28.95;;;16.27;;
31716;SDS011;18301;51.076;17.046;2022-09-25T04:58:17;25.88;;;16.52;;
31716;SDS011;18301;51.076;17.046;2022-09-25T05:03:19;30.05;;;16.77;;
31716;SDS011;18301;51.076;17.046;2022-09-25T05:08:21;27.40;;;15.57;;
31716;SDS011;18301;51.076;17.046;2022-09-25T05:13:23;29.98;;;16.20;;
31716;SDS011;18301;51.076;17.046;2022-09-25T05:18:24;28.90;;;16.00;;
31716;SDS011;18301;51.076;17.046;2022-09-25T05:23:26;30.33;;;16.88;;
31716;SDS011;18301;51.076;17.046;2022-09-25T05:28:31;27.55;;;16.27;;
31716;SDS011;18301;51.076;17.046;2022-09-25T05:33:33;27.70;;;16.67;;
31716;SDS011;18301;51.076;17.046;2022-09-25T05:38:36;30.17;;;16.17;;
31716;SDS011;18301;51.076;17.046;2022-09-25T05:43:39;26.98;;;16.88;;
31716;SDS011;18301;51.076;17.046;2022-09-25T05:48:43;29.45;;;17.88;;
31716;SDS011;18301;51.076;17.046;2022-09-25T05:53:44;31.77;;;16.58;;
31716;SDS011;18301;51.076;17.046;2022-09-25T05:58:47;26.55;;;16.65;;
31716;SDS011;18301;51.076;17.046;2022-09-25T06:03:49;32.10;;;18.17;;
31716;SDS011;18301;51.076;17.046;2022-09-25T06:08:52;28.98;;;17.45;;
31716;SDS011;18301;51.076;17.046;2022-09-25T06:13:54;29.58;;;18.52;;
31716;SDS011;18301;51.076;17.046;2022-09-25T06:18:57;31.42;;;19.42;;
31716;SDS011;18301;51.076;17.046;2022-09-25T06:23:59;33.47;;;19.10;;
31716;SDS011;18301;51.076;17.046;2022-09-25T06:29:01;32.63;;;19.73;;
31716;SDS011;18301;51.076;17.046;2022-09-25T06:34:03;29.65;;;19.20;;
31716;SDS011;18301;51.076;17.046;2022-09-25T06:39:06;30.10;;;19.42;;
31716;SDS011;18301;51.076;17.046;2022-09-25T06:44:07;31.25;;;19.55;;
31716;SDS011;18301;51.076;17.046;2022-09-25T06:49:10;27.52;;;18.35;;
31716;SDS011;18301;51.076;17.046;2022-09-25T06:54:11;27.73;;;17.55;;
31716;SDS011;18301;51.076;17.046;2022-09-25T06:59:13;30.55;;;18.42;;
31716;SDS011;18301;51.076;17.046;2022-09-25T07:04:15;27.90;;;17.30;;
31716;SDS011;18301;51.076;17.046;2022-09-25T07:09:16;29.10;;;17.45;;
31716;SDS011;18301;51.076;17.046;2022-09-25T07:14:18;26.45;;;16.55;;
31716;SDS011;18301;51.076;17.046;2022-09-25T07:19:20;25.98;;;17.83;;
31716;SDS011;18301;51.076;17.046;2022-09-25T07:24:27;27.52;;;17.88;;
31716;SDS011;18301;51.076;17.046;2022-09-25T07:29:29;29.20;;;17.27;;
31716;SDS011;18301;51.076;17.046;2022-09-25T07:34:33;22.13;;;16.30;;
31716;SDS011;18301;51.076;17.046;2022-09-25T07:39:35;24.23;;;15.40;;
31716;SDS011;18301;51.076;17.046;2022-09-25T07:44:36;21.02;;;14.15;;
31716;SDS011;18301;51.076;17.046;2022-09-25T07:49:45;20.63;;;12.85;;
31716;SDS011;18301;51.076;17.046;2022-09-25T07:54:46;22.75;;;14.77;;
31716;SDS011;18301;51.076;17.046;2022-09-25T07:59:48;24.00;;;14.75;;
31716;SDS011;18301;51.076;17.046;2022-09-25T08:04:49;19.88;;;12.52;;
31716;SDS011;18301;51.076;17.046;2022-09-25T08:09:51;21.45;;;14.13;;
31716;SDS011;18301;51.076;17.046;2022-09-25T08:14:52;22.35;;;14.60;;
31716;SDS011;18301;51.076;17.046;2022-09-25T08:19:54;19.83;;;12.75;;
31716;SDS011;18301;51.076;17.046;2022-09-25T08:24:55;18.80;;;12.43;;
31716;SDS011;18301;51.076;17.046;2022-09-25T08:29:57;16.92;;;11.00;;
31716;SDS011;18301;51.076;17.046;2022-09-25T08:34:58;16.83;;;10.30;;
31716;SDS011;18301;51.076;17.046;2022-09-25T08:40:01;12.65;;;8.82;;
31716;SDS011;18301;51.076;17.046;2022-09-25T08:45:04;11.93;;;8.77;;
31716;SDS011;18301;51.076;17.046;2022-09-25T08:50:30;11.88;;;8.77;;
31716;SDS011;18301;51.076;17.046;2022-09-25T08:55:34;11.48;;;8.60;;
31716;SDS011;18301;51.076;17.046;2022-09-25T09:01:05;10.15;;;7.63;;
31716;SDS011;18301;51.076;17.046;2022-09-25T09:06:11;8.60;;;7.22;;
31716;SDS011;18301;51.076;17.046;2022-09-25T09:11:20;9.50;;;6.65;;
31716;SDS011;18301;51.076;17.046;2022-09-25T09:37:00;7.80;;;6.53;;
31716;SDS011;18301;51.076;17.046;2022-09-25T09:42:19;8.77;;;5.70;;
31716;SDS011;18301;51.076;17.046;2022-09-25T09:47:41;8.45;;;6.20;;
31716;SDS011;18301;51.076;17.046;2022-09-25T09:52:49;8.55;;;6.10;;
31716;SDS011;18301;51.076;17.046;2022-09-25T09:57:58;6.20;;;5.15;;
31716;SDS011;18301;51.076;17.046;2022-09-25T10:03:04;8.73;;;6.03;;
31716;SDS011;18301;51.076;17.046;2022-09-25T10:08:15;10.05;;;6.15;;
31716;SDS011;18301;51.076;17.046;2022-09-25T10:24:06;7.07;;;5.47;;
31716;SDS011;18301;51.076;17.046;2022-09-25T10:34:21;7.25;;;4.93;;
31716;SDS011;18301;51.076;17.046;2022-09-25T10:39:34;8.32;;;4.78;;
31716;SDS011;18301;51.076;17.046;2022-09-25T10:44:46;6.97;;;4.65;;
31716;SDS011;18301;51.076;17.046;2022-09-25T10:49:57;5.30;;;4.38;;
31716;SDS011;18301;51.076;17.046;2022-09-25T10:55:13;7.53;;;4.75;;
31716;SDS011;18301;51.076;17.046;2022-09-25T11:00:22;6.65;;;3.90;;
31716;SDS011;18301;51.076;17.046;2022-09-25T11:05:28;6.82;;;5.40;;
31716;SDS011;18301;51.076;17.046;2022-09-25T11:10:42;7.00;;;5.75;;
31716;SDS011;18301;51.076;17.046;2022-09-25T11:16:00;6.82;;;5.40;;
31716;SDS011;18301;51.076;17.046;2022-09-25T11:21:04;7.55;;;5.20;;
31716;SDS011;18301;51.076;17.046;2022-09-25T11:26:17;7.15;;;5.53;;
31716;SDS011;18301;51.076;17.046;2022-09-25T11:42:10;7.90;;;5.10;;
31716;SDS011;18301;51.076;17.046;2022-09-25T12:08:52;4.32;;;3.78;;
31716;SDS011;18301;51.076;17.046;2022-09-25T12:14:13;5.82;;;4.28;;
31716;SDS011;18301;51.076;17.046;2022-09-25T12:30:17;5.50;;;4.38;;
31716;SDS011;18301;51.076;17.046;2022-09-25T12:35:55;6.32;;;4.90;;
31716;SDS011;18301;51.076;17.046;2022-09-25T12:56:23;5.60;;;4.70;;
31716;SDS011;18301;51.076;17.046;2022-09-25T13:01:32;5.90;;;4.32;;
31716;SDS011;18301;51.076;17.046;2022-09-25T13:07:00;7.70;;;4.60;;
31716;SDS011;18301;51.076;17.046;2022-09-25T13:17:39;4.40;;;3.80;;
31716;SDS011;18301;51.076;17.046;2022-09-25T13:22:41;4.88;;;4.25;;
31716;SDS011;18301;51.076;17.046;2022-09-25T13:27:44;5.60;;;4.30;;
31716;SDS011;18301;51.076;17.046;2022-09-25T13:32:47;5.60;;;4.68;;
31716;SDS011;18301;51.076;17.046;2022-09-25T13:37:52;4.95;;;4.45;;
31716;SDS011;18301;51.076;17.046;2022-09-25T13:42:58;6.38;;;4.63;;
31716;SDS011;18301;51.076;17.046;2022-09-25T13:53:47;6.55;;;4.53;;
31716;SDS011;18301;51.076;17.046;2022-09-25T14:04:08;6.63;;;4.50;;
31716;SDS011;18301;51.076;17.046;2022-09-25T14:09:18;5.35;;;4.53;;
31716;SDS011;18301;51.076;17.046;2022-09-25T14:14:26;5.22;;;4.20;;
31716;SDS011;18301;51.076;17.046;2022-09-25T14:19:37;6.50;;;4.70;;
31716;SDS011;18301;51.076;17.046;2022-09-25T14:24:42;6.82;;;4.78;;
31716;SDS011;18301;51.076;17.046;2022-09-25T14:29:45;5.65;;;4.45;;
31716;SDS011;18301;51.076;17.046;2022-09-25T14:34:53;4.80;;;4.15;;
31716;SDS011;18301;51.076;17.046;2022-09-25T14:51:08;6.57;;;4.85;;
31716;SDS011;18301;51.076;17.046;2022-09-25T14:56:14;6.93;;;5.10;;
31716;SDS011;18301;51.076;17.046;2022-09-25T15:01:19;6.30;;;5.10;;
31716;SDS011;18301;51.076;17.046;2022-09-25T15:06:27;4.43;;;3.88;;
31716;SDS011;18301;51.076;17.046;2022-09-25T15:11:39;5.80;;;4.45;;
31716;SDS011;18301;51.076;17.046;2022-09-25T15:16:42;9.45;;;5.80;;
31716;SDS011;18301;51.076;17.046;2022-09-25T15:22:09;7.68;;;5.03;;
31716;SDS011;18301;51.076;17.046;2022-09-25T15:27:15;6.28;;;5.30;;
31716;SDS011;18301;51.076;17.046;2022-09-25T15:32:21;7.72;;;4.95;;
31716;SDS011;18301;51.076;17.046;2022-09-25T15:37:28;22.40;;;12.25;;
31716;SDS011;18301;51.076;17.046;2022-09-25T15:42:29;21.92;;;11.52;;
31716;SDS011;18301;51.076;17.046;2022-09-25T15:52:35;15.10;;;8.60;;
31716;SDS011;18301;51.076;17.046;2022-09-25T15:57:38;11.35;;;7.25;;
31716;SDS011;18301;51.076;17.046;2022-09-25T16:02:51;9.35;;;6.78;;
31716;SDS011;18301;51.076;17.046;2022-09-25T16:08:26;11.00;;;7.18;;
31716;SDS011;18301;51.076;17.046;2022-09-25T16:13:39;10.35;;;7.20;;
31716;SDS011;18301;51.076;17.046;2022-09-25T16:18:43;10.15;;;6.95;;
31716;SDS011;18301;51.076;17.046;2022-09-25T16:23:49;13.57;;;7.55;;
31716;SDS011;18301;51.076;17.046;2022-09-25T16:28:59;9.63;;;6.80;;
31716;SDS011;18301;51.076;17.046;2022-09-25T16:34:06;9.88;;;7.00;;
31716;SDS011;18301;51.076;17.046;2022-09-25T16:39:25;9.90;;;7.40;;
31716;SDS011;18301;51.076;17.046;2022-09-25T16:49:33;10.38;;;7.50;;
31716;SDS011;18301;51.076;17.046;2022-09-25T16:54:36;12.40;;;8.25;;
31716;SDS011;18301;51.076;17.046;2022-09-25T16:59:38;12.77;;;8.52;;
31716;SDS011;18301;51.076;17.046;2022-09-25T17:04:39;10.95;;;7.80;;
31716;SDS011;18301;51.076;17.046;2022-09-25T17:09:41;15.10;;;10.27;;
31716;SDS011;18301;51.076;17.046;2022-09-25T17:14:42;30.17;;;19.30;;
31716;SDS011;18301;51.076;17.046;2022-09-25T17:19:44;27.40;;;18.45;;
31716;SDS011;18301;51.076;17.046;2022-09-25T17:24:45;32.03;;;22.30;;
31716;SDS011;18301;51.076;17.046;2022-09-25T17:29:46;29.67;;;20.50;;
31716;SDS011;18301;51.076;17.046;2022-09-25T17:34:48;27.92;;;19.00;;
31716;SDS011;18301;51.076;17.046;2022-09-25T17:39:50;31.15;;;19.48;;
31716;SDS011;18301;51.076;17.046;2022-09-25T17:44:51;30.55;;;20.45;;
31716;SDS011;18301;51.076;17.046;2022-09-25T17:49:53;33.90;;;22.40;;
31716;SDS011;18301;51.076;17.046;2022-09-25T17:54:54;33.13;;;23.10;;
31716;SDS011;18301;51.076;17.046;2022-09-25T17:59:56;22.02;;;14.40;;
31716;SDS011;18301;51.076;17.046;2022-09-25T18:04:57;18.30;;;11.52;;
31716;SDS011;18301;51.076;17.046;2022-09-25T18:09:59;18.60;;;11.93;;
31716;SDS011;18301;51.076;17.046;2022-09-25T18:15:00;22.15;;;14.32;;
31716;SDS011;18301;51.076;17.046;2022-09-25T18:20:02;21.02;;;13.68;;
31716;SDS011;18301;51.076;17.046;2022-09-25T18:25:23;21.38;;;13.57;;
31716;SDS011;18301;51.076;17.046;2022-09-25T18:30:25;25.88;;;13.48;;
31716;SDS011;18301;51.076;17.046;2022-09-25T18:35:26;19.90;;;12.52;;
31716;SDS011;18301;51.076;17.046;2022-09-25T18:40:28;25.13;;;13.18;;
31716;SDS011;18301;51.076;17.046;2022-09-25T18:45:29;18.27;;;13.00;;
31716;SDS011;18301;51.076;17.046;2022-09-25T18:50:31;26.67;;;16.98;;
31716;SDS011;18301;51.076;17.046;2022-09-25T18:55:33;25.00;;;16.90;;
31716;SDS011;18301;51.076;17.046;2022-09-25T19:00:34;25.00;;;16.95;;
31716;SDS011;18301;51.076;17.046;2022-09-25T19:05:36;23.45;;;15.95;;
31716;SDS011;18301;51.076;17.046;2022-09-25T19:10:38;21.35;;;15.05;;
31716;SDS011;18301;51.076;17.046;2022-09-25T19:15:42;22.80;;;15.63;;
31716;SDS011;18301;51.076;17.046;2022-09-25T19:20:47;26.35;;;14.93;;
31716;SDS011;18301;51.076;17.046;2022-09-25T19:25:54;22.00;;;15.02;;
31716;SDS011;18301;51.076;17.046;2022-09-25T19:31:00;21.95;;;14.77;;
31716;SDS011;18301;51.076;17.046;2022-09-25T19:36:08;24.23;;;16.20;;
31716;SDS011;18301;51.076;17.046;2022-09-25T19:41:13;28.77;;;17.55;;
31716;SDS011;18301;51.076;17.046;2022-09-25T19:46:19;27.67;;;17.63;;
31716;SDS011;18301;51.076;17.046;2022-09-25T19:51:21;28.77;;;17.17;;
31716;SDS011;18301;51.076;17.046;2022-09-25T19:56:23;22.25;;;15.93;;
31716;SDS011;18301;51.076;17.046;2022-09-25T20:01:26;21.77;;;14.65;;
31716;SDS011;18301;51.076;17.046;2022-09-25T20:06:30;20.52;;;14.50;;
31716;SDS011;18301;51.076;17.046;2022-09-25T20:11:33;20.55;;;13.98;;
31716;SDS011;18301;51.076;17.046;2022-09-25T20:16:35;20.33;;;14.30;;
31716;SDS011;18301;51.076;17.046;2022-09-25T20:21:39;23.60;;;15.00;;
31716;SDS011;18301;51.076;17.046;2022-09-25T20:26:41;17.95;;;13.82;;
31716;SDS011;18301;51.076;17.046;2022-09-25T20:31:43;22.60;;;15.32;;
31716;SDS011;18301;51.076;17.046;2022-09-25T20:36:45;19.38;;;14.45;;
31716;SDS011;18301;51.076;17.046;2022-09-25T20:41:47;19.08;;;14.32;;
31716;SDS011;18301;51.076;17.046;2022-09-25T20:46:49;22.52;;;15.32;;
31716;SDS011;18301;51.076;17.046;2022-09-25T20:51:51;24.52;;;16.52;;
31716;SDS011;18301;51.076;17.046;2022-09-25T20:56:53;27.05;;;17.75;;
31716;SDS011;18301;51.076;17.046;2022-09-25T21:01:55;24.00;;;17.17;;
31716;SDS011;18301;51.076;17.046;2022-09-25T21:06:56;29.35;;;18.48;;
31716;SDS011;18301;51.076;17.046;2022-09-25T21:11:58;23.98;;;17.17;;
31716;SDS011;18301;51.076;17.046;2022-09-25T21:17:00;27.75;;;16.92;;
31716;SDS011;18301;51.076;17.046;2022-09-25T21:22:02;23.05;;;17.00;;
31716;SDS011;18301;51.076;17.046;2022-09-25T21:27:03;24.70;;;17.63;;
31716;SDS011;18301;51.076;17.046;2022-09-25T21:32:05;26.05;;;17.40;;
31716;SDS011;18301;51.076;17.046;2022-09-25T21:37:06;24.73;;;17.30;;
31716;SDS011;18301;51.076;17.046;2022-09-25T21:42:08;24.48;;;17.30;;
31716;SDS011;18301;51.076;17.046;2022-09-25T21:47:10;23.65;;;17.02;;
31716;SDS011;18301;51.076;17.046;2022-09-25T21:52:12;25.13;;;17.33;;
31716;SDS011;18301;51.076;17.046;2022-09-25T21:57:13;25.73;;;17.65;;
31716;SDS011;18301;51.076;17.046;2022-09-25T22:02:14;25.73;;;17.60;;
31716;SDS011;18301;51.076;17.046;2022-09-25T22:07:16;25.52;;;18.02;;
31716;SDS011;18301;51.076;17.046;2022-09-25T22:12:17;27.05;;;19.02;;
31716;SDS011;18301;51.076;17.046;2022-09-25T22:17:19;26.20;;;18.48;;
31716;SDS011;18301;51.076;17.046;2022-09-25T22:22:20;27.90;;;18.65;;
31716;SDS011;18301;51.076;17.046;2022-09-25T22:27:22;25.85;;;18.02;;
31716;SDS011;18301;51.076;17.046;2022-09-25T22:32:23;25.30;;;18.25;;
31716;SDS011;18301;51.076;17.046;2022-09-25T22:37:25;26.35;;;18.50;;
31716;SDS011;18301;51.076;17.046;2022-09-25T22:42:26;29.30;;;18.80;;
31716;SDS011;18301;51.076;17.046;2022-09-25T22:47:27;31.00;;;20.25;;
31716;SDS011;18301;51.076;17.046;2022-09-25T22:52:29;28.75;;;19.88;;
31716;SDS011;18301;51.076;17.046;2022-09-25T22:57:32;31.58;;;21.20;;
31716;SDS011;18301;51.076;17.046;2022-09-25T23:02:38;27.27;;;19.67;;
31716;SDS011;18301;51.076;17.046;2022-09-25T23:07:40;26.88;;;18.95;;
31716;SDS011;18301;51.076;17.046;2022-09-25T23:12:41;30.83;;;21.08;;
31716;SDS011;18301;51.076;17.046;2022-09-25T23:17:43;26.88;;;18.83;;
31716;SDS011;18301;51.076;17.046;2022-09-25T23:22:44;30.15;;;18.92;;
31716;SDS011;18301;51.076;17.046;2022-09-25T23:27:46;27.23;;;18.50;;
31716;SDS011;18301;51.076;17.046;2022-09-25T23:32:47;28.00;;;18.90;;
31716;SDS011;18301;51.076;17.046;2022-09-25T23:37:48;26.73;;;18.90;;
31716;SDS011;18301;51.076;17.046;2022-09-25T23:42:50;29.77;;;19.27;;
31716;SDS011;18301;51.076;17.046;2022-09-25T23:47:52;28.15;;;19.85;;
31716;SDS011;18301;51.076;17.046;2022-09-25T23:52:53;27.33;;;18.25;;
31716;SDS011;18301;51.076;17.046;2022-09-25T23:57:54;26.33;;;18.00;;
